sensor_id;sensor_type;location;lat;lon;timestamp;temperature;humidity
12981;DHT22;6555;50.468;8.480;2022-08-04T00:04:32;27.10;30.70
12981;DHT22;6555;50.468;8.480;2022-08-04T00:10:08;27.10;30.20
12981;DHT22;6555;50.468;8.480;2022-08-04T00:15:26;27.00;30.50
12981;DHT22;6555;50.468;8.480;2022-08-04T00:20:59;26.90;29.80
12981;DHT22;6555;50.468;8.480;2022-08-04T00:26:24;26.70;31.00
12981;DHT22;6555;50.468;8.480;2022-08-04T00:31:55;26.50;30.10
12981;DHT22;6555;50.468;8.480;2022-08-04T00:37:12;26.40;30.80
12981;DHT22;6555;50.468;8.480;2022-08-04T00:42:48;26.30;30.40
12981;DHT22;6555;50.468;8.480;2022-08-04T00:48:22;26.20;31.20
12981;DHT22;6555;50.468;8.480;2022-08-04T00:54:02;26.10;31.10
12981;DHT22;6555;50.468;8.480;2022-08-04T00:59:31;26.10;31.50
12981;DHT22;6555;50.468;8.480;2022-08-04T01:05:05;26.00;31.40
12981;DHT22;6555;50.468;8.480;2022-08-04T01:10:31;25.90;31.20
12981;DHT22;6555;50.468;8.480;2022-08-04T01:16:08;25.90;31.30
12981;DHT22;6555;50.468;8.480;2022-08-04T01:27:26;25.80;31.70
12981;DHT22;6555;50.468;8.480;2022-08-04T01:32:52;25.70;31.90
12981;DHT22;6555;50.468;8.480;2022-08-04T01:38:29;25.60;31.50
12981;DHT22;6555;50.468;8.480;2022-08-04T01:43:47;25.60;32.20
12981;DHT22;6555;50.468;8.480;2022-08-04T01:49:21;25.50;31.60
12981;DHT22;6555;50.468;8.480;2022-08-04T01:54:48;25.40;32.40
12981;DHT22;6555;50.468;8.480;2022-08-04T02:00:21;25.30;31.90
12981;DHT22;6555;50.468;8.480;2022-08-04T02:05:41;25.30;32.50
12981;DHT22;6555;50.468;8.480;2022-08-04T02:11:21;25.20;32.40
12981;DHT22;6555;50.468;8.480;2022-08-04T02:16:43;25.20;32.80
12981;DHT22;6555;50.468;8.480;2022-08-04T02:22:16;25.10;32.70
12981;DHT22;6555;50.468;8.480;2022-08-04T02:27:46;25.00;33.10
12981;DHT22;6555;50.468;8.480;2022-08-04T02:33:23;25.00;33.00
12981;DHT22;6555;50.468;8.480;2022-08-04T02:38:54;24.90;33.20
12981;DHT22;6555;50.468;8.480;2022-08-04T02:44:26;24.80;33.50
12981;DHT22;6555;50.468;8.480;2022-08-04T02:49:44;24.70;33.30
12981;DHT22;6555;50.468;8.480;2022-08-04T02:55:17;24.70;33.10
12981;DHT22;6555;50.468;8.480;2022-08-04T03:00:34;24.60;33.70
12981;DHT22;6555;50.468;8.480;2022-08-04T03:12:25;24.40;34.10
12981;DHT22;6555;50.468;8.480;2022-08-04T03:24:57;24.20;34.30
12981;DHT22;6555;50.468;8.480;2022-08-04T03:30:44;24.20;34.60
12981;DHT22;6555;50.468;8.480;2022-08-04T03:36:30;24.20;34.80
12981;DHT22;6555;50.468;8.480;2022-08-04T03:42:19;24.10;34.60
12981;DHT22;6555;50.468;8.480;2022-08-04T03:47:59;24.00;34.90
12981;DHT22;6555;50.468;8.480;2022-08-04T03:53:40;24.00;34.80
12981;DHT22;6555;50.468;8.480;2022-08-04T03:59:22;23.90;35.10
12981;DHT22;6555;50.468;8.480;2022-08-04T04:05:42;23.90;35.30
12981;DHT22;6555;50.468;8.480;2022-08-04T04:17:43;23.70;35.60
12981;DHT22;6555;50.468;8.480;2022-08-04T04:23:14;23.70;35.80
12981;DHT22;6555;50.468;8.480;2022-08-04T04:28:55;23.70;35.60
12981;DHT22;6555;50.468;8.480;2022-08-04T04:34:24;23.70;35.90
12981;DHT22;6555;50.468;8.480;2022-08-04T04:40:13;23.70;35.90
12981;DHT22;6555;50.468;8.480;2022-08-04T04:45:37;23.60;36.20
12981;DHT22;6555;50.468;8.480;2022-08-04T04:51:16;23.60;35.60
12981;DHT22;6555;50.468;8.480;2022-08-04T04:56:38;23.60;36.40
12981;DHT22;6555;50.468;8.480;2022-08-04T05:02:35;23.50;36.00
12981;DHT22;6555;50.468;8.480;2022-08-04T05:08:19;23.60;36.80
12981;DHT22;6555;50.468;8.480;2022-08-04T05:14:01;23.60;36.90
12981;DHT22;6555;50.468;8.480;2022-08-04T05:19:49;23.60;36.90
12981;DHT22;6555;50.468;8.480;2022-08-04T05:25:22;23.70;37.00
12981;DHT22;6555;50.468;8.480;2022-08-04T05:30:45;23.70;37.40
12981;DHT22;6555;50.468;8.480;2022-08-04T05:36:17;23.80;36.90
12981;DHT22;6555;50.468;8.480;2022-08-04T05:41:49;23.90;37.70
12981;DHT22;6555;50.468;8.480;2022-08-04T05:47:23;24.00;36.90
12981;DHT22;6555;50.468;8.480;2022-08-04T05:52:40;24.10;38.00
12981;DHT22;6555;50.468;8.480;2022-08-04T05:58:16;24.20;37.30
12981;DHT22;6555;50.468;8.480;2022-08-04T06:03:34;24.40;38.10
12981;DHT22;6555;50.468;8.480;2022-08-04T06:09:06;24.50;37.80
12981;DHT22;6555;50.468;8.480;2022-08-04T06:14:23;24.70;38.30
12981;DHT22;6555;50.468;8.480;2022-08-04T06:19:55;24.90;37.80
12981;DHT22;6555;50.468;8.480;2022-08-04T06:25:30;25.00;38.60
12981;DHT22;6555;50.468;8.480;2022-08-04T06:31:02;25.20;37.90
12981;DHT22;6555;50.468;8.480;2022-08-04T06:36:43;25.40;38.30
12981;DHT22;6555;50.468;8.480;2022-08-04T06:42:14;25.50;37.80
12981;DHT22;6555;50.468;8.480;2022-08-04T06:47:32;25.70;38.10
12981;DHT22;6555;50.468;8.480;2022-08-04T06:53:03;25.90;37.70
12981;DHT22;6555;50.468;8.480;2022-08-04T06:58:21;26.20;38.60
12981;DHT22;6555;50.468;8.480;2022-08-04T07:03:51;26.40;38.00
12981;DHT22;6555;50.468;8.480;2022-08-04T07:09:10;26.60;38.60
12981;DHT22;6555;50.468;8.480;2022-08-04T07:14:41;26.90;38.20
12981;DHT22;6555;50.468;8.480;2022-08-04T07:19:58;27.30;39.00
12981;DHT22;6555;50.468;8.480;2022-08-04T07:25:30;27.50;38.40
12981;DHT22;6555;50.468;8.480;2022-08-04T07:31:09;27.80;38.60
12981;DHT22;6555;50.468;8.480;2022-08-04T07:36:50;28.10;38.60
12981;DHT22;6555;50.468;8.480;2022-08-04T07:42:09;28.50;38.70
12981;DHT22;6555;50.468;8.480;2022-08-04T07:47:42;28.70;38.20
12981;DHT22;6555;50.468;8.480;2022-08-04T07:53:13;28.90;38.30
12981;DHT22;6555;50.468;8.480;2022-08-04T07:59:05;29.20;38.30
12981;DHT22;6555;50.468;8.480;2022-08-04T08:04:22;29.50;38.40
12981;DHT22;6555;50.468;8.480;2022-08-04T08:09:52;29.70;38.00
12981;DHT22;6555;50.468;8.480;2022-08-04T08:15:11;30.00;38.40
12981;DHT22;6555;50.468;8.480;2022-08-04T08:20:44;30.20;38.10
12981;DHT22;6555;50.468;8.480;2022-08-04T08:26:01;30.40;38.10
12981;DHT22;6555;50.468;8.480;2022-08-04T08:31:33;30.70;37.70
12981;DHT22;6555;50.468;8.480;2022-08-04T08:37:12;31.00;38.30
12981;DHT22;6555;50.468;8.480;2022-08-04T08:42:57;31.20;38.00
12981;DHT22;6555;50.468;8.480;2022-08-04T08:48:54;31.50;38.50
12981;DHT22;6555;50.468;8.480;2022-08-04T08:55:02;31.90;37.40
12981;DHT22;6555;50.468;8.480;2022-08-04T09:00:27;32.20;37.60
12981;DHT22;6555;50.468;8.480;2022-08-04T09:06:12;32.40;37.40
12981;DHT22;6555;50.468;8.480;2022-08-04T09:11:38;32.70;37.10
12981;DHT22;6555;50.468;8.480;2022-08-04T09:17:19;32.90;36.90
12981;DHT22;6555;50.468;8.480;2022-08-04T09:22:43;33.30;37.10
12981;DHT22;6555;50.468;8.480;2022-08-04T09:28:22;33.50;36.70
12981;DHT22;6555;50.468;8.480;2022-08-04T09:34:03;33.90;36.50
12981;DHT22;6555;50.468;8.480;2022-08-04T09:39:46;34.20;36.50
12981;DHT22;6555;50.468;8.480;2022-08-04T09:45:11;34.50;36.00
12981;DHT22;6555;50.468;8.480;2022-08-04T09:50:59;34.70;35.80
12981;DHT22;6555;50.468;8.480;2022-08-04T09:56:23;35.00;35.90
12981;DHT22;6555;50.468;8.480;2022-08-04T10:01:58;35.30;35.60
12981;DHT22;6555;50.468;8.480;2022-08-04T10:07:44;35.60;35.10
12981;DHT22;6555;50.468;8.480;2022-08-04T10:13:42;36.00;35.40
12981;DHT22;6555;50.468;8.480;2022-08-04T10:19:06;36.30;34.80
12981;DHT22;6555;50.468;8.480;2022-08-04T10:24:52;36.50;34.30
12981;DHT22;6555;50.468;8.480;2022-08-04T10:30:13;36.70;33.70
12981;DHT22;6555;50.468;8.480;2022-08-04T10:35:48;36.80;33.70
12981;DHT22;6555;50.468;8.480;2022-08-04T10:41:10;37.10;33.70
12981;DHT22;6555;50.468;8.480;2022-08-04T10:46:48;37.30;33.30
12981;DHT22;6555;50.468;8.480;2022-08-04T10:52:10;37.40;32.50
12981;DHT22;6555;50.468;8.480;2022-08-04T10:57:49;37.50;32.50
12981;DHT22;6555;50.468;8.480;2022-08-04T11:03:12;37.60;31.80
12981;DHT22;6555;50.468;8.480;2022-08-04T11:08:34;37.80;31.80
12981;DHT22;6555;50.468;8.480;2022-08-04T11:14:10;38.00;32.20
12981;DHT22;6555;50.468;8.480;2022-08-04T11:19:33;38.30;31.30
12981;DHT22;6555;50.468;8.480;2022-08-04T11:25:13;38.40;30.80
12981;DHT22;6555;50.468;8.480;2022-08-04T11:30:39;38.60;30.30
12981;DHT22;6555;50.468;8.480;2022-08-04T11:36:19;38.80;30.60
12981;DHT22;6555;50.468;8.480;2022-08-04T11:41:41;39.10;30.60
12981;DHT22;6555;50.468;8.480;2022-08-04T11:47:22;39.30;30.10
12981;DHT22;6555;50.468;8.480;2022-08-04T11:52:42;39.40;29.40
12981;DHT22;6555;50.468;8.480;2022-08-04T11:58:13;39.50;29.70
12981;DHT22;6555;50.468;8.480;2022-08-04T12:03:45;39.70;29.10
12981;DHT22;6555;50.468;8.480;2022-08-04T12:09:28;39.90;29.10
12981;DHT22;6555;50.468;8.480;2022-08-04T12:14:56;40.10;28.70
12981;DHT22;6555;50.468;8.480;2022-08-04T12:20:40;40.10;28.50
12981;DHT22;6555;50.468;8.480;2022-08-04T12:26:02;40.30;28.10
12981;DHT22;6555;50.468;8.480;2022-08-04T12:31:37;40.40;28.20
12981;DHT22;6555;50.468;8.480;2022-08-04T12:37:01;40.60;27.80
12981;DHT22;6555;50.468;8.480;2022-08-04T12:42:43;40.80;27.70
12981;DHT22;6555;50.468;8.480;2022-08-04T12:48:08;40.80;27.30
12981;DHT22;6555;50.468;8.480;2022-08-04T12:53:41;40.70;27.40
12981;DHT22;6555;50.468;8.480;2022-08-04T12:59:02;40.60;27.40
12981;DHT22;6555;50.468;8.480;2022-08-04T13:04:33;40.50;27.20
12981;DHT22;6555;50.468;8.480;2022-08-04T13:09:59;40.40;26.80
12981;DHT22;6555;50.468;8.480;2022-08-04T13:15:34;40.40;27.10
12981;DHT22;6555;50.468;8.480;2022-08-04T13:21:12;40.30;26.80
12981;DHT22;6555;50.468;8.480;2022-08-04T13:27:04;40.20;26.80
12981;DHT22;6555;50.468;8.480;2022-08-04T13:32:26;40.30;27.10
12981;DHT22;6555;50.468;8.480;2022-08-04T13:37:58;40.40;27.10
12981;DHT22;6555;50.468;8.480;2022-08-04T13:43:23;40.50;26.60
12981;DHT22;6555;50.468;8.480;2022-08-04T13:49:17;40.60;26.50
12981;DHT22;6555;50.468;8.480;2022-08-04T13:54:54;40.70;26.50
12981;DHT22;6555;50.468;8.480;2022-08-04T14:00:25;41.00;27.10
12981;DHT22;6555;50.468;8.480;2022-08-04T14:05:43;41.20;26.60
12981;DHT22;6555;50.468;8.480;2022-08-04T14:11:17;41.50;26.40
12981;DHT22;6555;50.468;8.480;2022-08-04T14:17:02;41.80;26.00
12981;DHT22;6555;50.468;8.480;2022-08-04T14:22:36;42.00;26.30
12981;DHT22;6555;50.468;8.480;2022-08-04T14:27:55;42.10;25.90
12981;DHT22;6555;50.468;8.480;2022-08-04T14:33:36;42.20;26.00
12981;DHT22;6555;50.468;8.480;2022-08-04T14:39:13;42.40;25.80
12981;DHT22;6555;50.468;8.480;2022-08-04T14:44:54;42.40;25.80
12981;DHT22;6555;50.468;8.480;2022-08-04T14:50:12;42.30;25.40
12981;DHT22;6555;50.468;8.480;2022-08-04T14:55:46;42.20;25.70
12981;DHT22;6555;50.468;8.480;2022-08-04T15:01:05;42.20;25.40
12981;DHT22;6555;50.468;8.480;2022-08-04T15:06:38;42.20;25.60
12981;DHT22;6555;50.468;8.480;2022-08-04T15:11:55;42.30;25.20
12981;DHT22;6555;50.468;8.480;2022-08-04T15:17:26;42.30;25.20
12981;DHT22;6555;50.468;8.480;2022-08-04T15:22:43;42.40;25.00
12981;DHT22;6555;50.468;8.480;2022-08-04T15:28:18;42.40;24.90
12981;DHT22;6555;50.468;8.480;2022-08-04T15:33:38;42.20;24.50
12981;DHT22;6555;50.468;8.480;2022-08-04T15:39:23;42.00;24.60
12981;DHT22;6555;50.468;8.480;2022-08-04T15:45:03;41.70;24.20
12981;DHT22;6555;50.468;8.480;2022-08-04T15:51:02;41.50;24.40
12981;DHT22;6555;50.468;8.480;2022-08-04T15:56:43;41.20;24.50
12981;DHT22;6555;50.468;8.480;2022-08-04T16:02:38;41.00;24.50
12981;DHT22;6555;50.468;8.480;2022-08-04T16:07:58;40.80;24.30
12981;DHT22;6555;50.468;8.480;2022-08-04T16:13:29;40.60;24.50
12981;DHT22;6555;50.468;8.480;2022-08-04T16:18:46;40.50;24.40
12981;DHT22;6555;50.468;8.480;2022-08-04T16:24:18;40.30;24.80
12981;DHT22;6555;50.468;8.480;2022-08-04T16:29:38;40.30;24.70
12981;DHT22;6555;50.468;8.480;2022-08-04T16:35:24;40.30;24.90
12981;DHT22;6555;50.468;8.480;2022-08-04T16:40:53;40.30;24.70
12981;DHT22;6555;50.468;8.480;2022-08-04T16:46:39;40.40;24.70
12981;DHT22;6555;50.468;8.480;2022-08-04T16:52:17;40.50;24.60
12981;DHT22;6555;50.468;8.480;2022-08-04T16:57:49;40.50;24.70
12981;DHT22;6555;50.468;8.480;2022-08-04T17:03:06;40.50;24.50
12981;DHT22;6555;50.468;8.480;2022-08-04T17:08:43;40.50;24.60
12981;DHT22;6555;50.468;8.480;2022-08-04T17:14:00;40.40;24.40
12981;DHT22;6555;50.468;8.480;2022-08-04T17:19:31;40.30;24.60
12981;DHT22;6555;50.468;8.480;2022-08-04T17:24:49;40.30;24.50
12981;DHT22;6555;50.468;8.480;2022-08-04T17:30:25;40.10;24.60
12981;DHT22;6555;50.468;8.480;2022-08-04T17:35:58;40.00;24.40
12981;DHT22;6555;50.468;8.480;2022-08-04T17:41:47;39.90;24.20
12981;DHT22;6555;50.468;8.480;2022-08-04T17:47:07;39.80;24.70
12981;DHT22;6555;50.468;8.480;2022-08-04T17:52:59;39.70;24.40
12981;DHT22;6555;50.468;8.480;2022-08-04T17:58:22;39.50;24.20
12981;DHT22;6555;50.468;8.480;2022-08-04T18:03:54;39.20;24.50
12981;DHT22;6555;50.468;8.480;2022-08-04T18:09:12;39.00;24.50
12981;DHT22;6555;50.468;8.480;2022-08-04T18:15:05;38.80;24.30
12981;DHT22;6555;50.468;8.480;2022-08-04T18:20:24;38.60;24.50
12981;DHT22;6555;50.468;8.480;2022-08-04T18:25:55;38.40;24.60
12981;DHT22;6555;50.468;8.480;2022-08-04T18:31:18;38.20;24.70
12981;DHT22;6555;50.468;8.480;2022-08-04T18:36:50;38.00;24.80
12981;DHT22;6555;50.468;8.480;2022-08-04T18:42:26;37.70;24.60
12981;DHT22;6555;50.468;8.480;2022-08-04T18:47:58;37.50;24.80
12981;DHT22;6555;50.468;8.480;2022-08-04T18:53:22;37.20;25.20
12981;DHT22;6555;50.468;8.480;2022-08-04T18:58:58;37.10;25.20
12981;DHT22;6555;50.468;8.480;2022-08-04T19:04:18;36.90;25.20
12981;DHT22;6555;50.468;8.480;2022-08-04T19:09:51;36.60;25.40
12981;DHT22;6555;50.468;8.480;2022-08-04T19:15:08;36.40;26.10
12981;DHT22;6555;50.468;8.480;2022-08-04T19:20:50;36.20;26.00
12981;DHT22;6555;50.468;8.480;2022-08-04T19:26:12;35.90;26.30
12981;DHT22;6555;50.468;8.480;2022-08-04T19:31:42;35.70;26.20
12981;DHT22;6555;50.468;8.480;2022-08-04T19:36:59;35.60;26.70
12981;DHT22;6555;50.468;8.480;2022-08-04T19:42:50;35.50;26.60
12981;DHT22;6555;50.468;8.480;2022-08-04T19:48:19;35.30;27.00
12981;DHT22;6555;50.468;8.480;2022-08-04T19:53:51;35.20;26.90
12981;DHT22;6555;50.468;8.480;2022-08-04T19:59:18;35.00;27.40
12981;DHT22;6555;50.468;8.480;2022-08-04T20:04:49;34.90;26.80
12981;DHT22;6555;50.468;8.480;2022-08-04T20:10:07;34.70;27.30
12981;DHT22;6555;50.468;8.480;2022-08-04T20:15:38;34.50;27.30
12981;DHT22;6555;50.468;8.480;2022-08-04T20:21:05;34.30;27.70
12981;DHT22;6555;50.468;8.480;2022-08-04T20:26:52;34.20;27.60
12981;DHT22;6555;50.468;8.480;2022-08-04T20:32:17;34.00;28.20
12981;DHT22;6555;50.468;8.480;2022-08-04T20:37:47;33.90;27.70
12981;DHT22;6555;50.468;8.480;2022-08-04T20:43:08;33.80;28.20
12981;DHT22;6555;50.468;8.480;2022-08-04T20:48:40;33.60;28.10
12981;DHT22;6555;50.468;8.480;2022-08-04T20:53:56;33.50;28.50
12981;DHT22;6555;50.468;8.480;2022-08-04T20:59:32;33.40;28.30
12981;DHT22;6555;50.468;8.480;2022-08-04T21:04:49;33.30;28.80
12981;DHT22;6555;50.468;8.480;2022-08-04T21:10:19;33.10;28.50
12981;DHT22;6555;50.468;8.480;2022-08-04T21:15:36;33.00;29.10
12981;DHT22;6555;50.468;8.480;2022-08-04T21:21:13;32.90;28.50
12981;DHT22;6555;50.468;8.480;2022-08-04T21:26:42;32.80;29.10
12981;DHT22;6555;50.468;8.480;2022-08-04T21:32:13;32.70;28.80
12981;DHT22;6555;50.468;8.480;2022-08-04T21:37:35;32.60;29.30
12981;DHT22;6555;50.468;8.480;2022-08-04T21:43:15;32.50;29.00
12981;DHT22;6555;50.468;8.480;2022-08-04T21:48:35;32.50;29.70
12981;DHT22;6555;50.468;8.480;2022-08-04T21:54:08;32.40;29.40
12981;DHT22;6555;50.468;8.480;2022-08-04T21:59:24;32.30;29.90
12981;DHT22;6555;50.468;8.480;2022-08-04T22:05:01;32.20;29.50
12981;DHT22;6555;50.468;8.480;2022-08-04T22:10:22;32.10;30.00
12981;DHT22;6555;50.468;8.480;2022-08-04T22:15:58;32.00;29.70
12981;DHT22;6555;50.468;8.480;2022-08-04T22:21:16;31.90;29.90
12981;DHT22;6555;50.468;8.480;2022-08-04T22:26:53;31.80;29.70
12981;DHT22;6555;50.468;8.480;2022-08-04T22:32:17;31.70;30.00
12981;DHT22;6555;50.468;8.480;2022-08-04T22:37:48;31.50;29.90
12981;DHT22;6555;50.468;8.480;2022-08-04T22:43:26;31.30;30.70
12981;DHT22;6555;50.468;8.480;2022-08-04T22:48:56;31.00;30.30
12981;DHT22;6555;50.468;8.480;2022-08-04T22:54:13;30.90;30.60
12981;DHT22;6555;50.468;8.480;2022-08-04T22:59:46;30.70;30.30
12981;DHT22;6555;50.468;8.480;2022-08-04T23:05:02;30.60;31.10
12981;DHT22;6555;50.468;8.480;2022-08-04T23:10:33;30.40;30.70
12981;DHT22;6555;50.468;8.480;2022-08-04T23:15:51;30.40;31.60
12981;DHT22;6555;50.468;8.480;2022-08-04T23:21:24;30.20;31.10
12981;DHT22;6555;50.468;8.480;2022-08-04T23:26:56;30.00;32.10
12981;DHT22;6555;50.468;8.480;2022-08-04T23:32:26;29.90;31.30
12981;DHT22;6555;50.468;8.480;2022-08-04T23:37:42;29.70;32.20
12981;DHT22;6555;50.468;8.480;2022-08-04T23:43:33;29.60;31.60
12981;DHT22;6555;50.468;8.480;2022-08-04T23:49:04;29.50;32.70
12981;DHT22;6555;50.468;8.480;2022-08-04T23:54:36;29.50;32.10
12981;DHT22;6555;50.468;8.480;2022-08-04T23:59:58;29.40;32.90
